createdAt,value
2019-02-27T00:00:45.799Z,81.90
2019-02-27T00:03:16.691Z,81.60
2019-02-27T00:05:47.244Z,81.60
2019-02-27T00:08:17.727Z,81.30
2019-02-27T00:10:48.174Z,81.80
2019-02-27T00:13:18.681Z,81.30
2019-02-27T00:15:49.135Z,81.40
2019-02-27T00:18:23.709Z,81.70
2019-02-27T00:20:52.316Z,81.90
2019-02-27T00:23:24.150Z,82.20
2019-02-27T00:25:55.157Z,82.70
2019-02-27T00:28:25.645Z,83.10
2019-02-27T00:30:56.097Z,83.10
2019-02-27T00:33:28.617Z,83.50
2019-02-27T00:35:58.777Z,84.10
2019-02-27T00:38:29.251Z,84.50
2019-02-27T00:41:00.945Z,85.70
2019-02-27T00:43:31.408Z,85.90
2019-02-27T00:46:01.893Z,85.30
2019-02-27T00:48:32.338Z,84.70
2019-02-27T00:51:02.833Z,84.30
2019-02-27T00:53:33.292Z,84.10
2019-02-27T00:56:03.795Z,83.90
2019-02-27T00:58:34.294Z,83.60
2019-02-27T01:01:05.120Z,83.10
2019-02-27T01:03:37.298Z,83.20
2019-02-27T01:06:07.956Z,83.10
2019-02-27T01:08:38.414Z,83.30
2019-02-27T01:11:08.901Z,83.50
2019-02-27T01:13:42.555Z,83.80
2019-02-27T01:16:17.012Z,84.00
2019-02-27T01:18:46.826Z,84.10
2019-02-27T01:21:19.954Z,84.10
2019-02-27T01:23:51.179Z,84.00
2019-02-27T01:26:23.133Z,84.10
2019-02-27T01:28:53.613Z,84.50
2019-02-27T01:31:24.510Z,84.50
2019-02-27T01:33:55.130Z,84.50
2019-02-27T01:36:25.579Z,84.10
2019-02-27T01:38:56.066Z,83.20
2019-02-27T01:41:26.549Z,83.60
2019-02-27T01:43:57.004Z,83.60
2019-02-27T01:46:27.771Z,83.90
2019-02-27T01:48:58.867Z,83.90
2019-02-27T01:51:29.316Z,84.30
2019-02-27T01:54:04.268Z,84.90
2019-02-27T01:56:34.818Z,84.70
2019-02-27T01:59:06.846Z,85.30
2019-02-27T02:01:37.326Z,85.20
2019-02-27T02:04:07.813Z,85.80
2019-02-27T02:06:38.928Z,86.60
2019-02-27T02:09:31.108Z,86.40
2019-02-27T02:12:11.934Z,85.50
2019-02-27T02:15:05.248Z,86.40
2019-02-27T02:18:11.915Z,85.90
2019-02-27T02:21:10.214Z,85.60
2019-02-27T02:24:14.304Z,88.00
2019-02-27T02:27:08.234Z,88.80
2019-02-27T02:30:20.848Z,89.00
2019-02-27T02:33:16.448Z,88.60
2019-02-27T02:35:57.282Z,90.00
2019-02-27T02:38:32.479Z,89.60
2019-02-27T02:41:34.688Z,90.10
2019-02-27T02:44:30.762Z,90.50
2019-02-27T02:47:31.600Z,91.00
2019-02-27T02:50:27.201Z,91.00
2019-02-27T02:53:17.128Z,91.20
2019-02-27T02:56:14.895Z,90.90
2019-02-27T02:59:26.581Z,91.40
2019-02-27T03:02:13.354Z,91.70
2019-02-27T03:05:26.363Z,92.30
2019-02-27T03:08:07.168Z,92.70
2019-02-27T03:11:01.620Z,92.90
2019-02-27T03:13:50.464Z,93.50
2019-02-27T03:16:34.512Z,93.60
2019-02-27T03:19:12.715Z,93.70
2019-02-27T03:22:24.944Z,93.80
2019-02-27T03:25:40.871Z,93.90
2019-02-27T03:28:40.371Z,94.00
2019-02-27T03:31:39.113Z,94.30
2019-02-27T03:34:27.763Z,94.50
2019-02-27T03:37:20.995Z,94.60
2019-02-27T03:40:17.372Z,94.60
2019-02-27T03:42:57.855Z,94.60
2019-02-27T03:45:55.355Z,94.70
2019-02-27T03:48:41.954Z,94.90
2019-02-27T03:51:48.564Z,95.20
2019-02-27T03:54:41.729Z,95.70
2019-02-27T03:57:22.602Z,96.00
2019-02-27T04:00:24.594Z,95.80
2019-02-27T04:02:59.748Z,95.80
2019-02-27T04:06:01.818Z,95.90
2019-02-27T04:08:54.071Z,95.90
2019-02-27T04:11:24.866Z,95.90
2019-02-27T04:14:03.058Z,96.10
2019-02-27T04:16:29.405Z,96.40
2019-02-27T04:19:04.632Z,96.40
2019-02-27T04:21:36.509Z,96.50
2019-02-27T04:24:08.498Z,96.60
2019-02-27T04:26:42.013Z,96.60
2019-02-27T04:29:12.823Z,96.70
2019-02-27T04:31:44.430Z,96.80
2019-02-27T04:34:14.915Z,96.80
2019-02-27T04:36:47.213Z,97.00
2019-02-27T04:39:18.242Z,97.20
2019-02-27T04:41:49.535Z,97.40
2019-02-27T04:44:22.428Z,97.50
2019-02-27T04:46:55.083Z,97.60
2019-02-27T04:49:25.105Z,97.70
2019-02-27T04:51:55.868Z,97.70
2019-02-27T04:54:26.354Z,97.70
2019-02-27T04:56:58.129Z,97.70
2019-02-27T04:59:30.079Z,97.60
2019-02-27T05:02:23.174Z,97.60
2019-02-27T05:04:55.187Z,97.50
2019-02-27T05:07:26.305Z,97.50
2019-02-27T05:09:56.784Z,97.60
2019-02-27T05:12:27.231Z,97.70
2019-02-27T05:15:00.829Z,97.60
2019-02-27T05:17:34.091Z,97.50
2019-02-27T05:20:11.590Z,97.40
2019-02-27T05:22:40.121Z,97.30
2019-02-27T05:25:12.155Z,97.40
2019-02-27T05:27:42.792Z,97.40
2019-02-27T05:30:14.857Z,97.50
2019-02-27T05:32:45.334Z,97.50
2019-02-27T05:35:16.564Z,97.50
2019-02-27T05:37:47.724Z,97.40
2019-02-27T05:40:18.209Z,97.40
2019-02-27T05:42:50.022Z,97.30
2019-02-27T05:45:22.013Z,97.30
2019-02-27T05:47:52.517Z,97.10
2019-02-27T05:50:22.947Z,97.00
2019-02-27T05:52:53.426Z,96.80
2019-02-27T05:55:23.870Z,96.70
2019-02-27T05:57:55.722Z,96.50
2019-02-27T06:00:26.263Z,96.50
2019-02-27T06:02:57.969Z,96.30
2019-02-27T06:05:28.425Z,95.90
2019-02-27T06:08:02.067Z,95.80
2019-02-27T06:10:31.182Z,95.30
2019-02-27T06:13:01.680Z,95.00
2019-02-27T06:15:32.222Z,94.50
2019-02-27T06:18:02.714Z,93.90
2019-02-27T06:20:33.241Z,93.80
2019-02-27T06:23:04.409Z,92.70
2019-02-27T06:25:59.167Z,92.20
2019-02-27T06:28:27.453Z,91.90
2019-02-27T06:30:57.944Z,91.60
2019-02-27T06:33:29.066Z,91.70
2019-02-27T06:35:59.554Z,91.60
2019-02-27T06:38:31.577Z,91.20
2019-02-27T06:41:02.033Z,91.10
2019-02-27T06:43:32.519Z,90.80
2019-02-27T06:46:03.085Z,90.30
2019-02-27T06:48:33.568Z,88.80
2019-02-27T06:51:04.017Z,88.40
2019-02-27T06:53:34.496Z,87.50
2019-02-27T06:56:06.003Z,86.60
2019-02-27T06:58:36.472Z,86.50
2019-02-27T07:01:09.124Z,85.50
2019-02-27T07:03:39.098Z,85.40
2019-02-27T07:06:09.560Z,84.30
2019-02-27T07:08:40.725Z,83.10
2019-02-27T07:11:11.388Z,83.20
2019-02-27T07:13:42.517Z,82.10
2019-02-27T07:16:14.792Z,82.10
2019-02-27T07:18:46.831Z,80.10
2019-02-27T07:21:19.517Z,79.60
2019-02-27T07:23:50.010Z,79.20
2019-02-27T07:26:20.463Z,80.00
2019-02-27T07:28:52.483Z,78.20
2019-02-27T07:31:23.457Z,78.70
2019-02-27T07:33:54.009Z,76.90
2019-02-27T07:36:24.482Z,76.00
2019-02-27T07:38:57.516Z,76.40
2019-02-27T07:41:27.796Z,75.90
2019-02-27T07:43:58.248Z,76.00
2019-02-27T07:46:29.650Z,75.40
2019-02-27T07:49:01.525Z,75.80
2019-02-27T07:51:32.238Z,75.50
2019-02-27T07:54:04.017Z,75.80
2019-02-27T07:56:35.397Z,75.00
2019-02-27T07:59:05.903Z,75.00
2019-02-27T08:01:43.469Z,73.80
2019-02-27T08:04:09.299Z,74.60
2019-02-27T08:06:41.428Z,74.10
2019-02-27T08:09:17.412Z,72.70
2019-02-27T08:11:47.988Z,72.70
2019-02-27T08:14:18.472Z,71.20
2019-02-27T08:16:48.934Z,71.60
2019-02-27T08:19:19.432Z,71.60
2019-02-27T08:21:49.882Z,71.30
2019-02-27T08:24:20.366Z,70.00
2019-02-27T08:26:52.453Z,69.10
2019-02-27T08:29:22.927Z,70.30
2019-02-27T08:31:53.425Z,70.10
2019-02-27T08:34:23.874Z,70.20
2019-02-27T08:36:54.414Z,69.80
2019-02-27T08:39:26.225Z,66.20
2019-02-27T08:41:56.679Z,65.90
2019-02-27T08:44:27.207Z,65.00
2019-02-27T08:46:58.327Z,65.90
2019-02-27T08:49:28.822Z,64.50
2019-02-27T08:52:00.561Z,65.90
2019-02-27T08:54:33.027Z,67.20
2019-02-27T08:57:03.732Z,64.80
2019-02-27T08:59:36.988Z,66.00
2019-02-27T09:02:07.580Z,63.80
2019-02-27T09:04:38.709Z,61.50
2019-02-27T09:07:09.253Z,62.70
2019-02-27T09:09:42.496Z,63.90
2019-02-27T09:12:14.006Z,63.90
2019-02-27T09:14:46.086Z,59.10
2019-02-27T09:17:18.227Z,58.20
2019-02-27T09:19:51.408Z,59.40
2019-02-27T09:22:21.895Z,60.40
2019-02-27T09:24:52.394Z,58.10
2019-02-27T09:27:22.908Z,56.00
2019-02-27T09:29:55.342Z,57.30
2019-02-27T09:32:27.342Z,56.10
2019-02-27T09:34:59.516Z,55.50
2019-02-27T09:37:30.078Z,54.40
2019-02-27T09:40:07.235Z,53.00
2019-02-27T09:42:37.707Z,52.70
2019-02-27T09:45:18.698Z,52.20
2019-02-27T09:47:49.235Z,50.30
2019-02-27T09:50:47.809Z,48.30
2019-02-27T09:53:15.655Z,48.70
2019-02-27T09:55:46.146Z,49.10
2019-02-27T09:58:19.597Z,48.50
2019-02-27T10:01:11.919Z,47.90
2019-02-27T10:03:44.906Z,47.80
2019-02-27T10:06:17.810Z,46.60
2019-02-27T10:08:48.544Z,45.30
2019-02-27T10:11:22.691Z,43.90
2019-02-27T10:13:53.860Z,43.90
2019-02-27T10:16:35.395Z,44.10
2019-02-27T10:19:08.381Z,43.50
2019-02-27T10:21:38.926Z,42.20
2019-02-27T10:24:09.458Z,40.50
2019-02-27T10:27:03.227Z,39.90
2019-02-27T10:29:35.330Z,38.70
2019-02-27T10:32:05.826Z,38.80
2019-02-27T10:34:36.362Z,38.50
2019-02-27T10:37:12.846Z,38.20
2019-02-27T10:39:44.564Z,38.50
2019-02-27T10:42:14.773Z,39.10
2019-02-27T10:44:45.944Z,38.10
2019-02-27T10:47:16.441Z,38.30
2019-02-27T10:49:48.535Z,37.20
2019-02-27T10:52:23.924Z,38.30
2019-02-27T10:54:51.930Z,37.80
2019-02-27T10:57:22.543Z,37.60
2019-02-27T10:59:53.021Z,37.00
2019-02-27T11:02:25.346Z,37.90
2019-02-27T11:04:55.806Z,37.40
2019-02-27T11:07:26.432Z,36.90
2019-02-27T11:09:56.962Z,37.00
2019-02-27T11:12:29.538Z,36.60
2019-02-27T11:15:00.890Z,35.90
2019-02-27T11:17:31.388Z,34.90
2019-02-27T11:20:03.168Z,35.50
2019-02-27T11:22:34.631Z,35.00
2019-02-27T11:25:10.509Z,33.80
2019-02-27T11:27:41.045Z,32.80
2019-02-27T11:30:19.095Z,32.60
2019-02-27T11:32:49.557Z,32.40
2019-02-27T11:35:22.135Z,31.00
2019-02-27T11:37:52.246Z,30.20
2019-02-27T11:40:25.599Z,30.30
2019-02-27T11:42:56.153Z,30.30
2019-02-27T11:45:26.800Z,29.80
2019-02-27T11:47:57.263Z,29.90
2019-02-27T11:50:27.828Z,29.70
2019-02-27T11:53:02.769Z,30.00
2019-02-27T11:55:32.192Z,28.40
2019-02-27T11:58:05.415Z,28.00
2019-02-27T12:00:36.292Z,28.40
2019-02-27T12:03:11.185Z,28.50
2019-02-27T12:05:41.200Z,28.70
2019-02-27T12:08:11.693Z,28.60
2019-02-27T12:10:42.224Z,29.20
2019-02-27T12:13:12.792Z,29.40
2019-02-27T12:15:44.589Z,29.70
2019-02-27T12:18:15.177Z,29.40
2019-02-27T12:20:45.779Z,29.40
2019-02-27T12:23:16.274Z,29.30
2019-02-27T12:25:46.728Z,29.80
2019-02-27T12:28:18.116Z,29.80
2019-02-27T12:30:48.950Z,30.00
2019-02-27T12:33:19.437Z,29.90
2019-02-27T12:35:49.967Z,30.40
2019-02-27T12:38:20.458Z,30.50
2019-02-27T12:40:50.921Z,30.50
2019-02-27T12:43:21.486Z,29.60
2019-02-27T12:45:51.969Z,29.50
2019-02-27T12:48:22.440Z,29.70
2019-02-27T12:50:52.925Z,30.20
2019-02-27T12:53:23.413Z,29.40
2019-02-27T12:55:54.700Z,30.00
2019-02-27T12:58:25.423Z,30.00
2019-02-27T13:00:58.029Z,30.00
2019-02-27T13:03:28.495Z,30.50
2019-02-27T13:06:00.931Z,31.10
2019-02-27T13:08:31.139Z,31.50
2019-02-27T13:11:01.645Z,31.70
2019-02-27T13:13:34.744Z,31.90
2019-02-27T13:16:05.441Z,31.10
2019-02-27T13:18:35.959Z,31.60
2019-02-27T13:21:09.185Z,31.20
2019-02-27T13:23:42.190Z,31.50
2019-02-27T13:26:11.836Z,31.20
2019-02-27T13:28:45.979Z,30.00
2019-02-27T13:31:16.319Z,30.10
2019-02-27T13:33:47.404Z,30.60
2019-02-27T13:36:17.920Z,30.20
2019-02-27T13:38:49.535Z,30.30
2019-02-27T13:41:20.580Z,30.50
2019-02-27T13:43:51.074Z,29.60
2019-02-27T13:46:22.711Z,29.30
2019-02-27T13:48:54.984Z,30.00
2019-02-27T13:51:25.472Z,31.00
2019-02-27T13:54:00.317Z,30.40
2019-02-27T13:56:29.674Z,29.70
2019-02-27T13:59:00.167Z,30.70
2019-02-27T14:01:32.154Z,30.00
2019-02-27T14:04:03.586Z,30.20
2019-02-27T14:06:34.951Z,30.00
2019-02-27T14:09:09.764Z,30.00
2019-02-27T14:11:40.292Z,30.60
2019-02-27T14:14:15.059Z,30.70
2019-02-27T14:16:49.265Z,30.00
2019-02-27T14:19:21.345Z,30.80
2019-02-27T14:21:53.312Z,31.40
2019-02-27T14:24:24.476Z,31.60
2019-02-27T14:26:54.953Z,31.60
2019-02-27T14:29:26.094Z,31.40
2019-02-27T14:31:57.622Z,31.60
2019-02-27T14:34:28.122Z,31.40
2019-02-27T14:36:58.571Z,31.00
2019-02-27T14:39:30.447Z,30.70
2019-02-27T14:42:01.329Z,30.90
2019-02-27T14:44:32.412Z,30.20
2019-02-27T14:47:02.936Z,29.80
2019-02-27T14:49:34.987Z,30.20
2019-02-27T14:52:05.748Z,30.50
2019-02-27T14:54:36.229Z,31.10
2019-02-27T14:57:08.259Z,31.30
2019-02-27T14:59:40.272Z,30.00
2019-02-27T15:02:16.229Z,30.50
2019-02-27T15:04:46.711Z,30.60
2019-02-27T15:07:18.711Z,30.80
2019-02-27T15:09:49.196Z,31.00
2019-02-27T15:12:20.482Z,31.40
2019-02-27T15:14:51.063Z,31.40
2019-02-27T15:17:21.530Z,31.60
2019-02-27T15:19:52.089Z,31.80
2019-02-27T15:22:22.560Z,32.30
2019-02-27T15:24:54.591Z,32.60
2019-02-27T15:27:25.697Z,33.00
2019-02-27T15:29:56.293Z,33.40
2019-02-27T15:32:29.442Z,32.70
2019-02-27T15:35:01.902Z,32.50
2019-02-27T15:37:37.114Z,31.80
2019-02-27T15:40:11.113Z,32.40
2019-02-27T15:42:42.700Z,32.80
2019-02-27T15:45:23.375Z,33.90
2019-02-27T15:47:53.962Z,35.30
2019-02-27T15:50:35.782Z,36.70
2019-02-27T15:53:06.430Z,37.80
2019-02-27T15:55:37.919Z,38.80
2019-02-27T15:58:08.559Z,39.70
2019-02-27T16:00:39.040Z,40.30
2019-02-27T16:03:11.785Z,41.00
2019-02-27T16:05:43.391Z,41.70
2019-02-27T16:08:15.279Z,42.60
2019-02-27T16:10:54.932Z,43.40
2019-02-27T16:13:21.977Z,44.20
2019-02-27T16:15:54.099Z,44.60
2019-02-27T16:18:25.943Z,45.50
2019-02-27T16:21:02.252Z,47.20
2019-02-27T16:23:37.426Z,48.00
2019-02-27T16:26:08.687Z,48.70
2019-02-27T16:28:40.536Z,49.80
2019-02-27T16:31:12.567Z,50.70
2019-02-27T16:33:45.830Z,51.70
2019-02-27T16:36:17.697Z,52.80
2019-02-27T16:38:51.321Z,53.20
2019-02-27T16:41:29.187Z,54.10
2019-02-27T16:44:03.332Z,54.80
2019-02-27T16:46:33.842Z,56.20
2019-02-27T16:49:09.628Z,56.50
2019-02-27T16:51:40.708Z,56.90
2019-02-27T16:54:12.848Z,57.40
2019-02-27T16:56:46.749Z,58.10
2019-02-27T16:59:15.496Z,59.10
2019-02-27T17:01:45.969Z,60.60
2019-02-27T17:04:17.714Z,61.40
2019-02-27T17:06:52.180Z,62.80
2019-02-27T17:09:24.507Z,63.20
2019-02-27T17:11:54.996Z,65.10
2019-02-27T17:14:26.636Z,65.50
2019-02-27T17:16:57.128Z,67.30
2019-02-27T17:19:28.743Z,68.30
2019-02-27T17:21:59.500Z,69.60
2019-02-27T17:24:30.652Z,70.30
2019-02-27T17:27:01.153Z,71.10
2019-02-27T17:29:31.616Z,71.90
2019-02-27T17:32:03.878Z,72.20
2019-02-27T17:34:36.008Z,73.10
2019-02-27T17:37:07.196Z,73.40
2019-02-27T17:39:37.769Z,73.70
2019-02-27T17:42:09.826Z,73.80
2019-02-27T17:44:43.740Z,74.00
2019-02-27T17:47:14.224Z,74.80
2019-02-27T17:49:45.483Z,75.50
2019-02-27T17:52:15.956Z,75.70
2019-02-27T17:54:48.090Z,75.80
2019-02-27T17:57:24.221Z,76.10
2019-02-27T17:59:50.758Z,76.50
2019-02-27T18:02:22.377Z,77.40
2019-02-27T18:04:53.829Z,77.30
2019-02-27T18:07:24.453Z,78.10
2019-02-27T18:09:58.383Z,78.40
2019-02-27T18:12:29.225Z,79.30
2019-02-27T18:14:59.738Z,79.50
2019-02-27T18:17:34.686Z,80.40
2019-02-27T18:20:06.916Z,81.10
2019-02-27T18:22:37.381Z,81.60
2019-02-27T18:25:12.191Z,82.10
2019-02-27T18:27:42.720Z,82.20
2019-02-27T18:30:19.874Z,83.10
2019-02-27T18:32:50.773Z,83.40
2019-02-27T18:35:21.484Z,83.40
2019-02-27T18:37:54.228Z,82.90
2019-02-27T18:40:24.437Z,82.80
2019-02-27T18:42:56.538Z,83.60
2019-02-27T18:45:30.188Z,84.20
2019-02-27T18:48:01.468Z,84.50
2019-02-27T18:50:36.194Z,84.00
2019-02-27T18:53:07.551Z,83.50
2019-02-27T18:55:38.130Z,83.20
2019-02-27T18:58:09.255Z,83.50
2019-02-27T19:00:39.713Z,83.30
2019-02-27T19:03:12.456Z,83.30
2019-02-27T19:05:42.979Z,83.40
2019-02-27T19:08:13.538Z,82.90
2019-02-27T19:10:44.670Z,83.50
2019-02-27T19:13:16.338Z,82.60
2019-02-27T19:15:46.869Z,82.30
2019-02-27T19:18:17.363Z,82.80
2019-02-27T19:20:48.299Z,83.30
2019-02-27T19:23:19.795Z,83.80
2019-02-27T19:25:50.291Z,83.50
2019-02-27T19:28:24.479Z,83.00
2019-02-27T19:30:53.266Z,83.90
2019-02-27T19:33:23.749Z,84.90
2019-02-27T19:35:56.400Z,85.00
2019-02-27T19:38:26.424Z,84.70
2019-02-27T19:40:58.468Z,84.50
2019-02-27T19:43:31.371Z,84.80
2019-02-27T19:46:01.839Z,85.50
2019-02-27T19:48:32.342Z,84.60
2019-02-27T19:51:05.112Z,84.70
2019-02-27T19:53:42.721Z,85.00
2019-02-27T19:56:13.000Z,85.90
2019-02-27T19:58:45.046Z,86.20
2019-02-27T20:01:35.621Z,86.80
2019-02-27T20:04:09.607Z,86.30
2019-02-27T20:06:42.358Z,86.50
2019-02-27T20:09:19.047Z,86.20
2019-02-27T20:11:48.364Z,86.80
2019-02-27T20:14:20.119Z,87.40
2019-02-27T20:16:54.957Z,88.00
2019-02-27T20:19:28.439Z,89.00
2019-02-27T20:21:55.208Z,89.30
2019-02-27T20:24:29.466Z,89.80
2019-02-27T20:26:59.941Z,90.00
2019-02-27T20:29:30.430Z,90.20
2019-02-27T20:32:05.607Z,90.40
2019-02-27T20:34:39.274Z,90.60
2019-02-27T20:37:09.888Z,90.80
2019-02-27T20:39:43.710Z,91.00
2019-02-27T20:42:14.471Z,91.10
2019-02-27T20:44:45.072Z,91.20
2019-02-27T20:47:15.615Z,91.30
2019-02-27T20:49:47.872Z,91.50
2019-02-27T20:52:18.326Z,91.60
2019-02-27T20:54:49.356Z,91.80
2019-02-27T20:57:20.688Z,91.80
2019-02-27T20:59:52.333Z,91.80
2019-02-27T21:02:22.828Z,91.70
2019-02-27T21:04:53.297Z,91.80
2019-02-27T21:07:26.216Z,92.00
2019-02-27T21:09:56.626Z,92.30
2019-02-27T21:12:27.101Z,92.50
2019-02-27T21:14:57.922Z,92.50
2019-02-27T21:17:29.033Z,92.30
2019-02-27T21:20:01.019Z,92.10
2019-02-27T21:22:32.398Z,92.20
2019-02-27T21:25:05.812Z,92.20
2019-02-27T21:27:36.268Z,91.90
2019-02-27T21:30:19.374Z,91.80
2019-02-27T21:32:49.973Z,91.90
2019-02-27T21:35:20.663Z,92.00
2019-02-27T21:37:54.390Z,92.10
2019-02-27T21:40:25.808Z,92.00
2019-02-27T21:42:56.270Z,92.30
2019-02-27T21:45:26.831Z,92.60
2019-02-27T21:47:57.366Z,92.70
2019-02-27T21:50:28.928Z,92.80
2019-02-27T21:52:59.390Z,93.00
2019-02-27T21:55:32.856Z,93.10
2019-02-27T21:58:04.293Z,92.70
2019-02-27T22:00:35.513Z,92.50
2019-02-27T22:03:06.071Z,92.80
2019-02-27T22:05:42.682Z,92.80
2019-02-27T22:08:08.743Z,92.70
2019-02-27T22:10:39.277Z,92.70
2019-02-27T22:13:10.818Z,92.80
2019-02-27T22:15:41.524Z,92.80
2019-02-27T22:18:12.177Z,93.30
2019-02-27T22:20:42.710Z,93.70
2019-02-27T22:23:13.584Z,93.80
2019-02-27T22:25:45.680Z,93.80
2019-02-27T22:28:17.304Z,93.90
2019-02-27T22:30:51.509Z,93.80
2019-02-27T22:33:22.984Z,93.90
2019-02-27T22:35:55.288Z,94.10
2019-02-27T22:38:26.772Z,94.10
2019-02-27T22:40:58.871Z,94.10
2019-02-27T22:43:30.092Z,94.10
2019-02-27T22:46:00.588Z,94.40
2019-02-27T22:48:32.166Z,93.90
2019-02-27T22:51:03.173Z,94.10
2019-02-27T22:53:33.631Z,94.50
2019-02-27T22:56:04.148Z,94.40
2019-02-27T22:58:34.606Z,94.50
2019-02-27T23:01:11.030Z,94.40
2019-02-27T23:03:50.839Z,94.50
2019-02-27T23:06:23.003Z,93.90
2019-02-27T23:08:54.450Z,93.80
2019-02-27T23:11:25.591Z,93.80
2019-02-27T23:13:56.710Z,93.70
2019-02-27T23:16:29.777Z,93.50
2019-02-27T23:18:59.636Z,93.30
2019-02-27T23:21:31.703Z,93.30
2019-02-27T23:24:02.167Z,93.40
2019-02-27T23:26:33.952Z,93.50
2019-02-27T23:29:06.471Z,93.70
2019-02-27T23:31:37.122Z,93.80
2019-02-27T23:34:08.643Z,93.70
2019-02-27T23:36:39.279Z,93.70
2019-02-27T23:39:10.309Z,93.80
2019-02-27T23:41:40.824Z,94.10
2019-02-27T23:44:12.188Z,93.90
2019-02-27T23:46:49.583Z,94.10
2019-02-27T23:49:29.211Z,94.00
2019-02-27T23:52:02.486Z,94.30
2019-02-27T23:54:35.898Z,94.50
2019-02-27T23:57:05.339Z,94.40
2019-02-27T23:59:37.000Z,94.10
